sensor_id;sensor_type;location;lat;lon;timestamp;P1;durP1;ratioP1;P2;durP2;ratioP2
62419;SDS011;48460;51.616;5.426;2022-08-11T00:02:23;12.57;;;4.20;;
62419;SDS011;48460;51.616;5.426;2022-08-11T00:04:56;10.43;;;4.20;;
62419;SDS011;48460;51.616;5.426;2022-08-11T00:07:27;9.07;;;4.13;;
62419;SDS011;48460;51.616;5.426;2022-08-11T00:09:53;8.90;;;3.83;;
62419;SDS011;48460;51.616;5.426;2022-08-11T00:12:20;7.82;;;3.78;;
62419;SDS011;48460;51.616;5.426;2022-08-11T00:14:46;7.05;;;3.90;;
62419;SDS011;48460;51.616;5.426;2022-08-11T00:17:21;8.07;;;3.80;;
62419;SDS011;48460;51.616;5.426;2022-08-11T00:19:53;8.85;;;3.60;;
62419;SDS011;48460;51.616;5.426;2022-08-11T00:22:26;6.40;;;3.92;;
62419;SDS011;48460;51.616;5.426;2022-08-11T00:24:53;7.60;;;3.92;;
62419;SDS011;48460;51.616;5.426;2022-08-11T00:27:20;10.48;;;3.50;;
62419;SDS011;48460;51.616;5.426;2022-08-11T00:29:58;11.07;;;3.75;;
62419;SDS011;48460;51.616;5.426;2022-08-11T00:32:23;8.95;;;4.00;;
62419;SDS011;48460;51.616;5.426;2022-08-11T00:34:49;8.32;;;4.13;;
62419;SDS011;48460;51.616;5.426;2022-08-11T00:37:16;7.25;;;3.70;;
62419;SDS011;48460;51.616;5.426;2022-08-11T00:39:46;9.15;;;3.88;;
62419;SDS011;48460;51.616;5.426;2022-08-11T00:47:56;6.97;;;3.60;;
62419;SDS011;48460;51.616;5.426;2022-08-11T01:02:00;8.05;;;3.70;;
62419;SDS011;48460;51.616;5.426;2022-08-11T01:15:57;10.20;;;4.32;;
62419;SDS011;48460;51.616;5.426;2022-08-11T01:18:52;5.47;;;3.70;;
62419;SDS011;48460;51.616;5.426;2022-08-11T01:41:34;7.63;;;3.90;;
62419;SDS011;48460;51.616;5.426;2022-08-11T01:50:20;7.20;;;4.20;;
62419;SDS011;48460;51.616;5.426;2022-08-11T01:53:11;10.40;;;4.22;;
62419;SDS011;48460;51.616;5.426;2022-08-11T01:56:32;9.23;;;4.57;;
62419;SDS011;48460;51.616;5.426;2022-08-11T02:01:33;8.23;;;3.93;;
62419;SDS011;48460;51.616;5.426;2022-08-11T02:06:54;7.35;;;4.32;;
62419;SDS011;48460;51.616;5.426;2022-08-11T02:09:40;10.00;;;4.18;;
62419;SDS011;48460;51.616;5.426;2022-08-11T02:15:13;7.10;;;4.10;;
62419;SDS011;48460;51.616;5.426;2022-08-11T02:18:10;7.23;;;3.77;;
62419;SDS011;48460;51.616;5.426;2022-08-11T02:21:12;8.73;;;3.97;;
62419;SDS011;48460;51.616;5.426;2022-08-11T02:24:03;9.93;;;3.90;;
62419;SDS011;48460;51.616;5.426;2022-08-11T02:26:43;11.25;;;4.68;;
62419;SDS011;48460;51.616;5.426;2022-08-11T02:29:23;11.27;;;4.50;;
62419;SDS011;48460;51.616;5.426;2022-08-11T02:42:30;7.47;;;4.15;;
62419;SDS011;48460;51.616;5.426;2022-08-11T02:54:09;7.97;;;4.18;;
62419;SDS011;48460;51.616;5.426;2022-08-11T03:14:09;12.57;;;4.30;;
62419;SDS011;48460;51.616;5.426;2022-08-11T03:19:48;7.35;;;4.40;;
62419;SDS011;48460;51.616;5.426;2022-08-11T03:30:14;9.77;;;4.53;;
62419;SDS011;48460;51.616;5.426;2022-08-11T03:32:49;10.73;;;4.50;;
62419;SDS011;48460;51.616;5.426;2022-08-11T03:39:06;12.30;;;5.07;;
62419;SDS011;48460;51.616;5.426;2022-08-11T03:53:16;8.82;;;4.72;;
62419;SDS011;48460;51.616;5.426;2022-08-11T04:26:42;7.95;;;4.90;;
62419;SDS011;48460;51.616;5.426;2022-08-11T05:04:59;9.32;;;4.53;;
62419;SDS011;48460;51.616;5.426;2022-08-11T05:13:33;10.23;;;5.00;;
62419;SDS011;48460;51.616;5.426;2022-08-11T05:16:28;8.43;;;5.00;;
62419;SDS011;48460;51.616;5.426;2022-08-11T05:19:19;11.68;;;5.43;;
62419;SDS011;48460;51.616;5.426;2022-08-11T05:22:09;13.18;;;5.70;;
62419;SDS011;48460;51.616;5.426;2022-08-11T05:25:16;13.70;;;5.70;;
62419;SDS011;48460;51.616;5.426;2022-08-11T05:28:32;10.02;;;5.38;;
62419;SDS011;48460;51.616;5.426;2022-08-11T05:31:21;12.52;;;5.40;;
62419;SDS011;48460;51.616;5.426;2022-08-11T05:34:15;10.90;;;5.18;;
62419;SDS011;48460;51.616;5.426;2022-08-11T05:37:16;12.98;;;5.00;;
62419;SDS011;48460;51.616;5.426;2022-08-11T05:39:48;14.82;;;5.75;;
62419;SDS011;48460;51.616;5.426;2022-08-11T05:42:36;12.20;;;5.20;;
62419;SDS011;48460;51.616;5.426;2022-08-11T05:45:25;10.27;;;5.47;;
62419;SDS011;48460;51.616;5.426;2022-08-11T05:48:10;15.05;;;5.72;;
62419;SDS011;48460;51.616;5.426;2022-08-11T05:50:56;16.50;;;6.32;;
62419;SDS011;48460;51.616;5.426;2022-08-11T05:53:43;20.23;;;6.30;;
62419;SDS011;48460;51.616;5.426;2022-08-11T05:56:32;19.70;;;6.50;;
62419;SDS011;48460;51.616;5.426;2022-08-11T05:59:04;12.90;;;6.03;;
62419;SDS011;48460;51.616;5.426;2022-08-11T06:01:37;21.50;;;6.57;;
62419;SDS011;48460;51.616;5.426;2022-08-11T06:04:05;23.83;;;6.53;;
62419;SDS011;48460;51.616;5.426;2022-08-11T06:06:48;17.85;;;6.60;;
62419;SDS011;48460;51.616;5.426;2022-08-11T06:09:21;19.65;;;6.80;;
62419;SDS011;48460;51.616;5.426;2022-08-11T06:11:48;14.57;;;6.43;;
62419;SDS011;48460;51.616;5.426;2022-08-11T06:14:25;12.20;;;5.55;;
62419;SDS011;48460;51.616;5.426;2022-08-11T06:16:54;15.23;;;6.25;;
62419;SDS011;48460;51.616;5.426;2022-08-11T06:21:55;12.27;;;5.95;;
62419;SDS011;48460;51.616;5.426;2022-08-11T06:24:23;12.48;;;6.00;;
62419;SDS011;48460;51.616;5.426;2022-08-11T06:26:52;12.30;;;6.40;;
62419;SDS011;48460;51.616;5.426;2022-08-11T06:29:19;13.23;;;6.50;;
62419;SDS011;48460;51.616;5.426;2022-08-11T06:31:52;17.05;;;6.80;;
62419;SDS011;48460;51.616;5.426;2022-08-11T06:37:43;10.82;;;6.68;;
62419;SDS011;48460;51.616;5.426;2022-08-11T06:43:14;12.20;;;7.05;;
62419;SDS011;48460;51.616;5.426;2022-08-11T06:48:32;11.65;;;6.75;;
62419;SDS011;48460;51.616;5.426;2022-08-11T06:51:01;9.10;;;6.50;;
62419;SDS011;48460;51.616;5.426;2022-08-11T06:53:42;23.77;;;7.32;;
62419;SDS011;48460;51.616;5.426;2022-08-11T06:56:10;17.15;;;6.85;;
62419;SDS011;48460;51.616;5.426;2022-08-11T06:58:57;13.32;;;6.30;;
62419;SDS011;48460;51.616;5.426;2022-08-11T07:04:43;22.58;;;7.10;;
62419;SDS011;48460;51.616;5.426;2022-08-11T07:07:22;21.95;;;7.00;;
62419;SDS011;48460;51.616;5.426;2022-08-11T07:13:30;15.95;;;6.45;;
62419;SDS011;48460;51.616;5.426;2022-08-11T07:16:27;14.25;;;6.05;;
62419;SDS011;48460;51.616;5.426;2022-08-11T07:19:06;8.98;;;5.70;;
62419;SDS011;48460;51.616;5.426;2022-08-11T07:21:54;10.73;;;5.80;;
62419;SDS011;48460;51.616;5.426;2022-08-11T07:24:41;17.00;;;6.25;;
62419;SDS011;48460;51.616;5.426;2022-08-11T07:27:45;8.35;;;5.40;;
62419;SDS011;48460;51.616;5.426;2022-08-11T07:30:33;14.10;;;5.47;;
62419;SDS011;48460;51.616;5.426;2022-08-11T07:33:04;11.88;;;5.63;;
62419;SDS011;48460;51.616;5.426;2022-08-11T07:35:37;10.02;;;5.15;;
62419;SDS011;48460;51.616;5.426;2022-08-11T07:38:10;12.77;;;5.60;;
62419;SDS011;48460;51.616;5.426;2022-08-11T07:40:41;17.67;;;5.70;;
62419;SDS011;48460;51.616;5.426;2022-08-11T07:43:07;11.82;;;5.60;;
62419;SDS011;48460;51.616;5.426;2022-08-11T07:45:37;13.93;;;5.32;;
62419;SDS011;48460;51.616;5.426;2022-08-11T07:48:25;8.55;;;4.95;;
62419;SDS011;48460;51.616;5.426;2022-08-11T07:51:12;12.10;;;5.32;;
62419;SDS011;48460;51.616;5.426;2022-08-11T07:54:00;13.60;;;5.32;;
62419;SDS011;48460;51.616;5.426;2022-08-11T07:56:31;14.27;;;5.18;;
62419;SDS011;48460;51.616;5.426;2022-08-11T07:59:00;11.82;;;5.30;;
62419;SDS011;48460;51.616;5.426;2022-08-11T08:01:46;10.70;;;5.20;;
62419;SDS011;48460;51.616;5.426;2022-08-11T08:04:31;14.23;;;5.15;;
62419;SDS011;48460;51.616;5.426;2022-08-11T08:09:54;15.60;;;5.28;;
62419;SDS011;48460;51.616;5.426;2022-08-11T08:12:38;15.02;;;5.10;;
62419;SDS011;48460;51.616;5.426;2022-08-11T08:15:23;15.20;;;5.05;;
62419;SDS011;48460;51.616;5.426;2022-08-11T08:18:08;11.50;;;5.00;;
62419;SDS011;48460;51.616;5.426;2022-08-11T08:20:41;12.90;;;5.13;;
62419;SDS011;48460;51.616;5.426;2022-08-11T08:23:11;14.02;;;4.95;;
62419;SDS011;48460;51.616;5.426;2022-08-11T08:25:38;13.75;;;4.78;;
62419;SDS011;48460;51.616;5.426;2022-08-11T08:28:09;9.60;;;4.82;;
62419;SDS011;48460;51.616;5.426;2022-08-11T08:30:38;11.65;;;4.90;;
62419;SDS011;48460;51.616;5.426;2022-08-11T08:33:22;11.50;;;4.90;;
62419;SDS011;48460;51.616;5.426;2022-08-11T08:36:02;12.65;;;4.70;;
62419;SDS011;48460;51.616;5.426;2022-08-11T08:38:51;9.75;;;5.03;;
62419;SDS011;48460;51.616;5.426;2022-08-11T08:41:41;9.13;;;4.68;;
62419;SDS011;48460;51.616;5.426;2022-08-11T08:44:14;14.00;;;4.50;;
62419;SDS011;48460;51.616;5.426;2022-08-11T08:47:02;14.82;;;4.70;;
62419;SDS011;48460;51.616;5.426;2022-08-11T08:49:31;11.10;;;4.47;;
62419;SDS011;48460;51.616;5.426;2022-08-11T08:52:03;12.40;;;4.70;;
62419;SDS011;48460;51.616;5.426;2022-08-11T08:54:38;11.15;;;4.70;;
62419;SDS011;48460;51.616;5.426;2022-08-11T08:57:08;10.55;;;4.78;;
62419;SDS011;48460;51.616;5.426;2022-08-11T08:59:40;13.77;;;5.07;;
62419;SDS011;48460;51.616;5.426;2022-08-11T09:02:08;10.55;;;4.60;;
62419;SDS011;48460;51.616;5.426;2022-08-11T09:04:37;8.65;;;4.75;;
62419;SDS011;48460;51.616;5.426;2022-08-11T09:07:11;9.98;;;4.70;;
62419;SDS011;48460;51.616;5.426;2022-08-11T09:09:47;9.52;;;4.63;;
62419;SDS011;48460;51.616;5.426;2022-08-11T09:12:19;16.58;;;4.95;;
62419;SDS011;48460;51.616;5.426;2022-08-11T09:14:49;12.57;;;4.53;;
62419;SDS011;48460;51.616;5.426;2022-08-11T09:17:24;8.85;;;4.60;;
62419;SDS011;48460;51.616;5.426;2022-08-11T09:19:55;11.25;;;4.65;;
62419;SDS011;48460;51.616;5.426;2022-08-11T09:22:37;8.57;;;4.80;;
62419;SDS011;48460;51.616;5.426;2022-08-11T09:25:24;11.30;;;4.53;;
62419;SDS011;48460;51.616;5.426;2022-08-11T09:28:10;14.45;;;4.55;;
62419;SDS011;48460;51.616;5.426;2022-08-11T09:30:42;8.30;;;4.20;;
62419;SDS011;48460;51.616;5.426;2022-08-11T09:33:10;11.35;;;4.63;;
62419;SDS011;48460;51.616;5.426;2022-08-11T09:35:41;11.52;;;4.70;;
62419;SDS011;48460;51.616;5.426;2022-08-11T09:38:09;11.57;;;5.10;;
62419;SDS011;48460;51.616;5.426;2022-08-11T09:40:56;15.40;;;4.75;;
62419;SDS011;48460;51.616;5.426;2022-08-11T09:43:24;10.13;;;4.05;;
62419;SDS011;48460;51.616;5.426;2022-08-11T09:46:25;13.45;;;4.82;;
62419;SDS011;48460;51.616;5.426;2022-08-11T09:48:54;11.35;;;4.90;;
62419;SDS011;48460;51.616;5.426;2022-08-11T09:51:39;11.98;;;4.80;;
62419;SDS011;48460;51.616;5.426;2022-08-11T09:54:05;8.75;;;4.40;;
62419;SDS011;48460;51.616;5.426;2022-08-11T09:56:39;9.32;;;4.35;;
62419;SDS011;48460;51.616;5.426;2022-08-11T09:59:34;9.30;;;4.53;;
62419;SDS011;48460;51.616;5.426;2022-08-11T10:02:02;12.43;;;4.43;;
62419;SDS011;48460;51.616;5.426;2022-08-11T10:07:04;9.50;;;4.32;;
62419;SDS011;48460;51.616;5.426;2022-08-11T10:10:00;8.65;;;4.30;;
62419;SDS011;48460;51.616;5.426;2022-08-11T10:12:34;10.85;;;4.47;;
62419;SDS011;48460;51.616;5.426;2022-08-11T10:15:09;9.75;;;4.18;;
62419;SDS011;48460;51.616;5.426;2022-08-11T10:18:05;8.85;;;4.32;;
62419;SDS011;48460;51.616;5.426;2022-08-11T10:20:53;8.90;;;4.50;;
62419;SDS011;48460;51.616;5.426;2022-08-11T10:23:23;8.80;;;4.43;;
62419;SDS011;48460;51.616;5.426;2022-08-11T10:26:08;6.78;;;4.25;;
62419;SDS011;48460;51.616;5.426;2022-08-11T10:28:53;8.27;;;4.30;;
62419;SDS011;48460;51.616;5.426;2022-08-11T10:31:19;9.77;;;4.50;;
62419;SDS011;48460;51.616;5.426;2022-08-11T10:34:05;9.32;;;4.32;;
62419;SDS011;48460;51.616;5.426;2022-08-11T10:36:34;7.80;;;4.20;;
62419;SDS011;48460;51.616;5.426;2022-08-11T10:39:12;9.32;;;4.18;;
62419;SDS011;48460;51.616;5.426;2022-08-11T10:41:42;9.23;;;4.00;;
62419;SDS011;48460;51.616;5.426;2022-08-11T10:44:30;9.70;;;4.25;;
62419;SDS011;48460;51.616;5.426;2022-08-11T10:47:00;8.38;;;4.05;;
62419;SDS011;48460;51.616;5.426;2022-08-11T10:49:55;7.68;;;4.10;;
62419;SDS011;48460;51.616;5.426;2022-08-11T10:52:43;8.18;;;4.05;;
62419;SDS011;48460;51.616;5.426;2022-08-11T10:55:30;12.40;;;4.22;;
62419;SDS011;48460;51.616;5.426;2022-08-11T11:00:52;6.57;;;4.07;;
62419;SDS011;48460;51.616;5.426;2022-08-11T11:03:41;7.72;;;4.10;;
62419;SDS011;48460;51.616;5.426;2022-08-11T11:06:25;10.95;;;4.22;;
62419;SDS011;48460;51.616;5.426;2022-08-11T11:09:32;8.68;;;4.10;;
62419;SDS011;48460;51.616;5.426;2022-08-11T11:12:27;9.27;;;4.03;;
62419;SDS011;48460;51.616;5.426;2022-08-11T11:15:21;8.02;;;4.10;;
62419;SDS011;48460;51.616;5.426;2022-08-11T11:26:59;7.30;;;4.03;;
62419;SDS011;48460;51.616;5.426;2022-08-11T11:38:22;15.73;;;4.05;;
62419;SDS011;48460;51.616;5.426;2022-08-11T11:40:47;8.88;;;3.95;;
62419;SDS011;48460;51.616;5.426;2022-08-11T11:43:34;5.63;;;3.75;;
62419;SDS011;48460;51.616;5.426;2022-08-11T11:46:01;9.07;;;4.20;;
62419;SDS011;48460;51.616;5.426;2022-08-11T11:48:36;8.77;;;4.10;;
62419;SDS011;48460;51.616;5.426;2022-08-11T11:51:09;6.57;;;3.65;;
62419;SDS011;48460;51.616;5.426;2022-08-11T11:53:40;7.25;;;4.03;;
62419;SDS011;48460;51.616;5.426;2022-08-11T11:56:09;5.65;;;4.00;;
62419;SDS011;48460;51.616;5.426;2022-08-11T11:58:41;7.95;;;4.07;;
62419;SDS011;48460;51.616;5.426;2022-08-11T12:01:29;6.78;;;3.78;;
62419;SDS011;48460;51.616;5.426;2022-08-11T12:03:59;9.90;;;3.75;;
62419;SDS011;48460;51.616;5.426;2022-08-11T12:06:29;6.95;;;3.83;;
62419;SDS011;48460;51.616;5.426;2022-08-11T12:08:56;9.68;;;4.10;;
62419;SDS011;48460;51.616;5.426;2022-08-11T12:11:26;6.95;;;3.92;;
62419;SDS011;48460;51.616;5.426;2022-08-11T12:14:15;10.20;;;4.00;;
62419;SDS011;48460;51.616;5.426;2022-08-11T12:16:52;7.32;;;3.80;;
62419;SDS011;48460;51.616;5.426;2022-08-11T12:19:22;6.07;;;4.20;;
62419;SDS011;48460;51.616;5.426;2022-08-11T12:21:58;7.45;;;3.78;;
62419;SDS011;48460;51.616;5.426;2022-08-11T12:24:43;6.38;;;4.00;;
62419;SDS011;48460;51.616;5.426;2022-08-11T12:27:29;8.80;;;4.45;;
62419;SDS011;48460;51.616;5.426;2022-08-11T12:29:59;7.35;;;4.25;;
62419;SDS011;48460;51.616;5.426;2022-08-11T12:32:38;7.30;;;3.95;;
62419;SDS011;48460;51.616;5.426;2022-08-11T12:35:05;8.00;;;4.10;;
62419;SDS011;48460;51.616;5.426;2022-08-11T12:37:39;6.55;;;3.65;;
62419;SDS011;48460;51.616;5.426;2022-08-11T12:40:10;8.00;;;4.45;;
62419;SDS011;48460;51.616;5.426;2022-08-11T12:43:06;6.25;;;3.88;;
62419;SDS011;48460;51.616;5.426;2022-08-11T12:45:56;5.47;;;3.65;;
62419;SDS011;48460;51.616;5.426;2022-08-11T12:48:30;8.75;;;4.47;;
62419;SDS011;48460;51.616;5.426;2022-08-11T12:51:41;7.35;;;4.10;;
62419;SDS011;48460;51.616;5.426;2022-08-11T12:54:50;8.98;;;4.00;;
62419;SDS011;48460;51.616;5.426;2022-08-11T12:57:48;7.20;;;4.28;;
62419;SDS011;48460;51.616;5.426;2022-08-11T13:00:33;12.63;;;4.57;;
62419;SDS011;48460;51.616;5.426;2022-08-11T13:03:18;5.93;;;3.97;;
62419;SDS011;48460;51.616;5.426;2022-08-11T13:06:03;7.45;;;4.28;;
62419;SDS011;48460;51.616;5.426;2022-08-11T13:08:30;6.53;;;3.88;;
62419;SDS011;48460;51.616;5.426;2022-08-11T13:10:59;9.60;;;4.45;;
62419;SDS011;48460;51.616;5.426;2022-08-11T13:13:46;8.57;;;4.05;;
62419;SDS011;48460;51.616;5.426;2022-08-11T13:16:13;6.78;;;3.90;;
62419;SDS011;48460;51.616;5.426;2022-08-11T13:18:45;6.55;;;3.65;;
62419;SDS011;48460;51.616;5.426;2022-08-11T13:21:11;10.45;;;4.32;;
62419;SDS011;48460;51.616;5.426;2022-08-11T13:23:41;7.35;;;3.90;;
62419;SDS011;48460;51.616;5.426;2022-08-11T13:26:10;6.05;;;4.13;;
62419;SDS011;48460;51.616;5.426;2022-08-11T13:28:46;6.45;;;3.72;;
62419;SDS011;48460;51.616;5.426;2022-08-11T13:31:16;6.97;;;4.03;;
62419;SDS011;48460;51.616;5.426;2022-08-11T13:33:50;8.93;;;3.75;;
62419;SDS011;48460;51.616;5.426;2022-08-11T13:39:07;7.85;;;3.60;;
62419;SDS011;48460;51.616;5.426;2022-08-11T13:41:37;6.97;;;3.80;;
62419;SDS011;48460;51.616;5.426;2022-08-11T13:44:08;6.95;;;3.83;;
62419;SDS011;48460;51.616;5.426;2022-08-11T13:46:36;8.63;;;3.70;;
62419;SDS011;48460;51.616;5.426;2022-08-11T13:49:08;7.22;;;3.80;;
62419;SDS011;48460;51.616;5.426;2022-08-11T13:51:37;8.02;;;3.97;;
62419;SDS011;48460;51.616;5.426;2022-08-11T13:57:06;6.60;;;4.00;;
62419;SDS011;48460;51.616;5.426;2022-08-11T13:59:35;6.20;;;4.00;;
62419;SDS011;48460;51.616;5.426;2022-08-11T14:02:03;5.85;;;4.15;;
62419;SDS011;48460;51.616;5.426;2022-08-11T14:04:34;7.38;;;4.13;;
62419;SDS011;48460;51.616;5.426;2022-08-11T14:07:16;5.43;;;3.65;;
62419;SDS011;48460;51.616;5.426;2022-08-11T14:09:46;12.18;;;4.10;;
62419;SDS011;48460;51.616;5.426;2022-08-11T14:12:15;11.68;;;4.38;;
62419;SDS011;48460;51.616;5.426;2022-08-11T14:15:19;8.75;;;4.20;;
62419;SDS011;48460;51.616;5.426;2022-08-11T14:17:53;10.10;;;4.00;;
62419;SDS011;48460;51.616;5.426;2022-08-11T14:20:25;8.02;;;3.90;;
62419;SDS011;48460;51.616;5.426;2022-08-11T14:23:13;6.65;;;3.83;;
62419;SDS011;48460;51.616;5.426;2022-08-11T14:32:11;8.07;;;3.47;;
62419;SDS011;48460;51.616;5.426;2022-08-11T14:35:01;8.82;;;3.70;;
62419;SDS011;48460;51.616;5.426;2022-08-11T14:37:56;12.07;;;3.58;;
62419;SDS011;48460;51.616;5.426;2022-08-11T14:40:34;5.30;;;3.60;;
62419;SDS011;48460;51.616;5.426;2022-08-11T14:46:02;6.50;;;3.50;;
62419;SDS011;48460;51.616;5.426;2022-08-11T14:48:46;8.68;;;3.78;;
62419;SDS011;48460;51.616;5.426;2022-08-11T14:54:26;9.82;;;4.10;;
62419;SDS011;48460;51.616;5.426;2022-08-11T14:57:25;7.88;;;3.70;;
62419;SDS011;48460;51.616;5.426;2022-08-11T15:00:03;4.93;;;3.58;;
62419;SDS011;48460;51.616;5.426;2022-08-11T15:02:41;6.90;;;3.90;;
62419;SDS011;48460;51.616;5.426;2022-08-11T15:05:40;10.55;;;4.00;;
62419;SDS011;48460;51.616;5.426;2022-08-11T15:08:16;7.53;;;3.85;;
62419;SDS011;48460;51.616;5.426;2022-08-11T15:11:11;13.13;;;3.97;;
62419;SDS011;48460;51.616;5.426;2022-08-11T15:16:44;6.20;;;3.53;;
62419;SDS011;48460;51.616;5.426;2022-08-11T15:19:48;6.75;;;3.78;;
62419;SDS011;48460;51.616;5.426;2022-08-11T15:25:49;9.55;;;3.83;;
62419;SDS011;48460;51.616;5.426;2022-08-11T15:28:42;6.03;;;3.90;;
62419;SDS011;48460;51.616;5.426;2022-08-11T15:31:36;9.15;;;3.88;;
62419;SDS011;48460;51.616;5.426;2022-08-11T15:34:27;5.45;;;3.75;;
62419;SDS011;48460;51.616;5.426;2022-08-11T15:37:16;4.70;;;3.55;;
62419;SDS011;48460;51.616;5.426;2022-08-11T15:47:04;8.52;;;3.70;;
62419;SDS011;48460;51.616;5.426;2022-08-11T15:53:56;7.97;;;3.78;;
62419;SDS011;48460;51.616;5.426;2022-08-11T15:56:53;6.97;;;3.70;;
62419;SDS011;48460;51.616;5.426;2022-08-11T16:05:50;7.85;;;3.90;;
62419;SDS011;48460;51.616;5.426;2022-08-11T16:08:32;8.20;;;3.88;;
62419;SDS011;48460;51.616;5.426;2022-08-11T16:11:10;6.70;;;3.73;;
62419;SDS011;48460;51.616;5.426;2022-08-11T16:13:49;6.57;;;3.65;;
62419;SDS011;48460;51.616;5.426;2022-08-11T16:17:02;10.38;;;3.78;;
62419;SDS011;48460;51.616;5.426;2022-08-11T16:19:47;8.55;;;3.70;;
62419;SDS011;48460;51.616;5.426;2022-08-11T16:28:53;11.55;;;3.88;;
62419;SDS011;48460;51.616;5.426;2022-08-11T16:31:40;6.63;;;3.42;;
62419;SDS011;48460;51.616;5.426;2022-08-11T16:34:35;7.50;;;3.70;;
62419;SDS011;48460;51.616;5.426;2022-08-11T16:37:25;6.80;;;3.60;;
62419;SDS011;48460;51.616;5.426;2022-08-11T16:42:58;8.18;;;3.60;;
62419;SDS011;48460;51.616;5.426;2022-08-11T16:46:09;6.93;;;3.60;;
62419;SDS011;48460;51.616;5.426;2022-08-11T16:49:11;7.13;;;3.70;;
62419;SDS011;48460;51.616;5.426;2022-08-11T16:51:51;5.53;;;3.63;;
62419;SDS011;48460;51.616;5.426;2022-08-11T16:54:22;6.72;;;3.40;;
62419;SDS011;48460;51.616;5.426;2022-08-11T16:56:53;8.27;;;3.58;;
62419;SDS011;48460;51.616;5.426;2022-08-11T17:02:51;7.20;;;3.63;;
62419;SDS011;48460;51.616;5.426;2022-08-11T17:08:49;7.10;;;3.55;;
62419;SDS011;48460;51.616;5.426;2022-08-11T17:13:59;6.20;;;3.25;;
62419;SDS011;48460;51.616;5.426;2022-08-11T17:16:35;12.50;;;3.60;;
62419;SDS011;48460;51.616;5.426;2022-08-11T17:22:21;5.72;;;3.38;;
62419;SDS011;48460;51.616;5.426;2022-08-11T17:25:19;5.72;;;3.40;;
62419;SDS011;48460;51.616;5.426;2022-08-11T17:28:02;9.98;;;3.33;;
62419;SDS011;48460;51.616;5.426;2022-08-11T17:30:46;8.98;;;3.22;;
62419;SDS011;48460;51.616;5.426;2022-08-11T17:47:29;6.03;;;3.45;;
62419;SDS011;48460;51.616;5.426;2022-08-11T18:20:08;9.02;;;3.10;;
62419;SDS011;48460;51.616;5.426;2022-08-11T18:26:18;7.20;;;3.17;;
62419;SDS011;48460;51.616;5.426;2022-08-11T18:32:10;9.40;;;7.32;;
62419;SDS011;48460;51.616;5.426;2022-08-11T18:37:38;7.28;;;4.53;;
62419;SDS011;48460;51.616;5.426;2022-08-11T18:40:34;11.60;;;4.30;;
62419;SDS011;48460;51.616;5.426;2022-08-11T18:45:51;6.80;;;3.30;;
62419;SDS011;48460;51.616;5.426;2022-08-11T18:48:38;6.13;;;3.13;;
62419;SDS011;48460;51.616;5.426;2022-08-11T18:51:32;10.90;;;3.20;;
62419;SDS011;48460;51.616;5.426;2022-08-11T18:56:58;5.95;;;3.72;;
62419;SDS011;48460;51.616;5.426;2022-08-11T18:59:45;7.63;;;3.78;;
62419;SDS011;48460;51.616;5.426;2022-08-11T19:02:30;10.18;;;3.70;;
62419;SDS011;48460;51.616;5.426;2022-08-11T19:07:56;12.57;;;4.05;;
62419;SDS011;48460;51.616;5.426;2022-08-11T19:10:46;10.40;;;4.15;;
62419;SDS011;48460;51.616;5.426;2022-08-11T19:16:09;6.45;;;3.85;;
62419;SDS011;48460;51.616;5.426;2022-08-11T19:18:57;10.23;;;4.50;;
62419;SDS011;48460;51.616;5.426;2022-08-11T19:21:53;5.65;;;3.45;;
62419;SDS011;48460;51.616;5.426;2022-08-11T19:24:42;10.40;;;4.35;;
62419;SDS011;48460;51.616;5.426;2022-08-11T19:27:32;9.98;;;3.90;;
62419;SDS011;48460;51.616;5.426;2022-08-11T19:33:33;7.45;;;3.88;;
62419;SDS011;48460;51.616;5.426;2022-08-11T19:36:20;6.82;;;3.63;;
62419;SDS011;48460;51.616;5.426;2022-08-11T19:39:10;7.25;;;3.63;;
62419;SDS011;48460;51.616;5.426;2022-08-11T19:47:08;8.02;;;4.03;;
62419;SDS011;48460;51.616;5.426;2022-08-11T19:49:58;10.50;;;3.67;;
62419;SDS011;48460;51.616;5.426;2022-08-11T19:52:43;8.65;;;3.50;;
62419;SDS011;48460;51.616;5.426;2022-08-11T19:55:28;8.45;;;3.45;;
62419;SDS011;48460;51.616;5.426;2022-08-11T19:58:21;10.63;;;3.60;;
62419;SDS011;48460;51.616;5.426;2022-08-11T20:01:22;10.38;;;3.90;;
62419;SDS011;48460;51.616;5.426;2022-08-11T20:04:06;7.78;;;3.83;;
62419;SDS011;48460;51.616;5.426;2022-08-11T20:06:50;6.82;;;3.75;;
62419;SDS011;48460;51.616;5.426;2022-08-11T20:09:38;7.57;;;3.83;;
62419;SDS011;48460;51.616;5.426;2022-08-11T20:12:23;8.63;;;3.90;;
62419;SDS011;48460;51.616;5.426;2022-08-11T20:15:10;9.23;;;3.60;;
62419;SDS011;48460;51.616;5.426;2022-08-11T20:17:56;12.23;;;3.90;;
62419;SDS011;48460;51.616;5.426;2022-08-11T20:20:41;6.75;;;3.83;;
62419;SDS011;48460;51.616;5.426;2022-08-11T20:23:25;7.07;;;3.72;;
62419;SDS011;48460;51.616;5.426;2022-08-11T20:26:10;5.25;;;3.60;;
62419;SDS011;48460;51.616;5.426;2022-08-11T20:28:55;10.32;;;3.90;;
62419;SDS011;48460;51.616;5.426;2022-08-11T20:31:40;6.72;;;3.42;;
62419;SDS011;48460;51.616;5.426;2022-08-11T20:34:26;7.70;;;3.83;;
62419;SDS011;48460;51.616;5.426;2022-08-11T20:37:13;9.73;;;3.97;;
62419;SDS011;48460;51.616;5.426;2022-08-11T20:39:59;8.23;;;3.88;;
62419;SDS011;48460;51.616;5.426;2022-08-11T20:42:46;11.10;;;3.97;;
62419;SDS011;48460;51.616;5.426;2022-08-11T20:45:31;8.70;;;3.90;;
62419;SDS011;48460;51.616;5.426;2022-08-11T20:48:16;11.35;;;4.20;;
62419;SDS011;48460;51.616;5.426;2022-08-11T20:51:06;9.07;;;3.90;;
62419;SDS011;48460;51.616;5.426;2022-08-11T20:53:51;11.50;;;3.80;;
62419;SDS011;48460;51.616;5.426;2022-08-11T20:56:36;9.32;;;3.78;;
62419;SDS011;48460;51.616;5.426;2022-08-11T20:59:22;9.27;;;4.03;;
62419;SDS011;48460;51.616;5.426;2022-08-11T21:02:10;6.60;;;3.97;;
62419;SDS011;48460;51.616;5.426;2022-08-11T21:04:56;9.07;;;3.85;;
62419;SDS011;48460;51.616;5.426;2022-08-11T21:07:40;7.15;;;3.58;;
62419;SDS011;48460;51.616;5.426;2022-08-11T21:10:29;5.75;;;3.85;;
62419;SDS011;48460;51.616;5.426;2022-08-11T21:13:18;9.30;;;4.28;;
62419;SDS011;48460;51.616;5.426;2022-08-11T21:16:05;9.50;;;4.20;;
62419;SDS011;48460;51.616;5.426;2022-08-11T21:18:50;10.02;;;4.07;;
62419;SDS011;48460;51.616;5.426;2022-08-11T21:21:38;11.65;;;4.15;;
62419;SDS011;48460;51.616;5.426;2022-08-11T21:24:24;10.80;;;4.10;;
62419;SDS011;48460;51.616;5.426;2022-08-11T21:27:12;6.97;;;3.65;;
62419;SDS011;48460;51.616;5.426;2022-08-11T21:29:59;10.73;;;4.18;;
62419;SDS011;48460;51.616;5.426;2022-08-11T21:32:44;6.03;;;3.60;;
62419;SDS011;48460;51.616;5.426;2022-08-11T21:35:28;11.57;;;4.00;;
62419;SDS011;48460;51.616;5.426;2022-08-11T21:38:14;11.38;;;4.20;;
62419;SDS011;48460;51.616;5.426;2022-08-11T21:40:58;10.45;;;3.72;;
62419;SDS011;48460;51.616;5.426;2022-08-11T21:43:44;6.57;;;3.80;;
62419;SDS011;48460;51.616;5.426;2022-08-11T21:46:30;8.20;;;4.15;;
62419;SDS011;48460;51.616;5.426;2022-08-11T21:49:14;12.65;;;3.90;;
62419;SDS011;48460;51.616;5.426;2022-08-11T21:52:01;11.35;;;3.70;;
62419;SDS011;48460;51.616;5.426;2022-08-11T21:54:45;7.60;;;4.20;;
62419;SDS011;48460;51.616;5.426;2022-08-11T21:57:30;9.80;;;3.55;;
62419;SDS011;48460;51.616;5.426;2022-08-11T22:00:14;9.43;;;3.90;;
62419;SDS011;48460;51.616;5.426;2022-08-11T22:02:58;9.00;;;3.90;;
62419;SDS011;48460;51.616;5.426;2022-08-11T22:05:43;12.60;;;4.15;;
62419;SDS011;48460;51.616;5.426;2022-08-11T22:08:28;6.93;;;3.90;;
62419;SDS011;48460;51.616;5.426;2022-08-11T22:11:13;7.68;;;4.13;;
62419;SDS011;48460;51.616;5.426;2022-08-11T22:13:59;11.32;;;3.90;;
62419;SDS011;48460;51.616;5.426;2022-08-11T22:16:44;6.18;;;3.70;;
62419;SDS011;48460;51.616;5.426;2022-08-11T22:19:28;8.93;;;3.72;;
62419;SDS011;48460;51.616;5.426;2022-08-11T22:22:12;9.75;;;3.70;;
62419;SDS011;48460;51.616;5.426;2022-08-11T22:24:57;9.10;;;3.70;;